Time;durP1;ratioP1;P1;durP2;ratioP2;P2;SDS_P1;SDS_P2;PMS_P1;PMS_P2;Temp;Humidity;BMP_temperature;BMP_pressure;BME280_temperature;BME280_humidity;BME280_pressure;Samples;Min_cycle;Max_cycle;Signal;HPM_P1;HPM_P2
2024/01/16 00:00:13;;;;;;;10.07;3.38;;;;;;;;;;5030228;28;20028;-81
2024/01/16 00:02:40;;;;;;;8.65;3.50;;;;;;;;;;5042033;28;20021;-81
2024/01/16 00:05:09;;;;;;;10.32;3.42;;;;;;;;;;5038213;28;20037;-82
2024/01/16 00:07:41;;;;;;;10.63;3.70;;;;;;;;;;5038568;28;20124;-80
2024/01/16 00:10:10;;;;;;;8.70;3.28;;;;;;;;;;5037647;28;20062;-81
2024/01/16 00:12:40;;;;;;;8.35;2.45;;;;;;;;;;5043284;28;20127;-82
2024/01/16 00:15:20;;;;;;;7.88;2.80;;;;;;;;;;5038412;28;20040;-81
2024/01/16 00:17:49;;;;;;;8.70;2.90;;;;;;;;;;5041472;28;20067;-82
2024/01/16 00:20:18;;;;;;;9.15;3.13;;;;;;;;;;5041760;28;20618;-81
2024/01/16 00:22:47;;;;;;;9.80;3.10;;;;;;;;;;5046678;28;20029;-82
2024/01/16 00:25:14;;;;;;;10.27;4.00;;;;;;;;;;5045869;28;20032;-81
2024/01/16 00:27:42;;;;;;;9.43;3.67;;;;;;;;;;5048429;28;20029;-81
2024/01/16 00:30:12;;;;;;;10.32;4.15;;;;;;;;;;5039548;28;20055;-81
2024/01/16 00:32:41;;;;;;;8.88;3.55;;;;;;;;;;5048091;28;20032;-82
2024/01/16 00:35:10;;;;;;;8.88;3.05;;;;;;;;;;5024282;28;20885;-82
2024/01/16 00:37:39;;;;;;;9.43;3.40;;;;;;;;;;5042238;28;20042;-82
2024/01/16 00:40:08;;;;;;;10.18;3.75;;;;;;;;;;5026039;28;20772;-81
2024/01/16 00:42:37;;;;;;;9.77;3.20;;;;;;;;;;5027912;28;20532;-82
2024/01/16 00:45:05;;;;;;;8.63;3.30;;;;;;;;;;5028797;28;20045;-81
2024/01/16 00:47:33;;;;;;;10.27;3.80;;;;;;;;;;5028354;28;20083;-82
2024/01/16 00:50:06;;;;;;;9.85;4.30;;;;;;;;;;5030904;28;20033;-81
2024/01/16 00:52:44;;;;;;;11.95;5.20;;;;;;;;;;5030633;28;20131;-81
2024/01/16 00:55:22;;;;;;;11.05;4.35;;;;;;;;;;5026452;28;20025;-82
2024/01/16 00:57:49;;;;;;;11.80;4.80;;;;;;;;;;5029301;28;20025;-81
2024/01/16 01:00:17;;;;;;;11.02;5.07;;;;;;;;;;5025641;28;20036;-81
2024/01/16 01:02:44;;;;;;;11.68;5.10;;;;;;;;;;5028329;28;20696;-82
2024/01/16 01:05:12;;;;;;;9.93;4.10;;;;;;;;;;5028695;28;20073;-81
2024/01/16 01:07:41;;;;;;;10.68;3.75;;;;;;;;;;5031090;28;20021;-81
2024/01/16 01:10:11;;;;;;;10.75;4.03;;;;;;;;;;5026049;28;20047;-83
2024/01/16 01:12:48;;;;;;;10.60;4.93;;;;;;;;;;5028394;28;20065;-82
2024/01/16 01:15:20;;;;;;;11.80;4.50;;;;;;;;;;5040766;28;20633;-83
2024/01/16 01:17:51;;;;;;;8.32;3.20;;;;;;;;;;5027776;28;20048;-83
2024/01/16 01:20:20;;;;;;;9.15;3.22;;;;;;;;;;5029050;28;20596;-80
2024/01/16 01:22:48;;;;;;;10.00;3.20;;;;;;;;;;5029159;28;20032;-83
2024/01/16 01:25:17;;;;;;;9.18;3.70;;;;;;;;;;5028227;28;20036;-83
2024/01/16 01:27:45;;;;;;;10.20;3.55;;;;;;;;;;5026809;28;20060;-82
2024/01/16 01:30:14;;;;;;;9.00;3.20;;;;;;;;;;5026865;28;20036;-80
2024/01/16 01:33:01;;;;;;;8.57;3.20;;;;;;;;;;5027066;28;20682;-83
2024/01/16 01:35:30;;;;;;;8.63;3.40;;;;;;;;;;5042151;28;20033;-81
2024/01/16 01:37:58;;;;;;;8.88;3.10;;;;;;;;;;5038844;28;20087;-81
2024/01/16 01:40:27;;;;;;;8.98;3.00;;;;;;;;;;5048501;28;23973;-83
2024/01/16 01:42:55;;;;;;;8.15;2.95;;;;;;;;;;5066823;28;20051;-83
2024/01/16 01:45:24;;;;;;;12.15;5.80;;;;;;;;;;5049370;28;20053;-82
2024/01/16 01:47:53;;;;;;;28.58;12.93;;;;;;;;;;5068653;28;20024;-81
2024/01/16 01:50:21;;;;;;;16.20;7.43;;;;;;;;;;5066435;28;20031;-86
2024/01/16 01:53:12;;;;;;;12.98;6.25;;;;;;;;;;5064263;28;20747;-81
2024/01/16 01:55:40;;;;;;;11.52;4.40;;;;;;;;;;5049710;28;20052;-81
2024/01/16 01:58:07;;;;;;;10.45;4.30;;;;;;;;;;5047665;28;20031;-81
2024/01/16 02:00:36;;;;;;;11.25;4.07;;;;;;;;;;5065614;28;20494;-83
2024/01/16 02:03:04;;;;;;;11.77;3.95;;;;;;;;;;5066399;28;20030;-80
2024/01/16 02:05:33;;;;;;;10.00;3.00;;;;;;;;;;5070112;28;20115;-80
2024/01/16 02:08:03;;;;;;;9.10;3.25;;;;;;;;;;5062478;28;20607;-81
2024/01/16 02:10:33;;;;;;;9.90;3.05;;;;;;;;;;5034635;28;20039;-81
2024/01/16 02:13:00;;;;;;;8.93;2.42;;;;;;;;;;5047536;28;20033;-81
2024/01/16 02:15:29;;;;;;;8.80;2.35;;;;;;;;;;5031482;28;20035;-83
2024/01/16 02:17:58;;;;;;;10.70;2.85;;;;;;;;;;5064904;28;20024;-81
2024/01/16 02:20:45;;;;;;;10.43;2.78;;;;;;;;;;5029061;28;20162;-81
2024/01/16 02:23:12;;;;;;;9.63;2.45;;;;;;;;;;5065017;28;20028;-80
2024/01/16 02:25:44;;;;;;;11.25;2.65;;;;;;;;;;5061949;28;20030;-81
2024/01/16 02:28:11;;;;;;;9.40;2.35;;;;;;;;;;5045337;28;20033;-83
2024/01/16 02:30:38;;;;;;;8.02;2.25;;;;;;;;;;5050824;28;20036;-81
2024/01/16 02:33:08;;;;;;;7.60;2.20;;;;;;;;;;5064118;28;20118;-82
2024/01/16 02:35:34;;;;;;;7.32;1.95;;;;;;;;;;5065696;28;20109;-82
2024/01/16 02:38:02;;;;;;;10.45;2.30;;;;;;;;;;5063630;28;20056;-81
2024/01/16 02:40:28;;;;;;;7.07;2.10;;;;;;;;;;5064618;28;20024;-82
2024/01/16 02:42:56;;;;;;;7.60;2.40;;;;;;;;;;5066280;28;20020;-82
2024/01/16 02:45:24;;;;;;;8.32;2.60;;;;;;;;;;5047411;28;20043;-82
2024/01/16 02:47:50;;;;;;;8.15;2.90;;;;;;;;;;5050835;28;20034;-82
2024/01/16 02:50:20;;;;;;;10.70;3.20;;;;;;;;;;5048876;28;20023;-81
2024/01/16 02:52:48;;;;;;;9.27;2.85;;;;;;;;;;5063909;28;20040;-81
2024/01/16 02:55:17;;;;;;;8.77;2.53;;;;;;;;;;5066215;28;20055;-80
2024/01/16 02:57:46;;;;;;;8.73;2.88;;;;;;;;;;5063964;28;20074;-81
2024/01/16 03:00:15;;;;;;;9.23;2.90;;;;;;;;;;5060350;28;20033;-80
2024/01/16 03:02:43;;;;;;;9.73;3.20;;;;;;;;;;5065720;28;20040;-81
2024/01/16 03:05:21;;;;;;;11.38;3.10;;;;;;;;;;5066282;28;20210;-80
2024/01/16 03:07:48;;;;;;;11.82;3.35;;;;;;;;;;5046155;28;20032;-83
2024/01/16 03:10:16;;;;;;;10.40;2.60;;;;;;;;;;5048118;28;20032;-80
2024/01/16 03:12:44;;;;;;;8.10;2.20;;;;;;;;;;5045367;28;20036;-81
2024/01/16 03:15:13;;;;;;;8.25;1.85;;;;;;;;;;5059694;28;20019;-80
2024/01/16 03:17:40;;;;;;;8.30;2.53;;;;;;;;;;5049675;28;20131;-83
2024/01/16 03:20:08;;;;;;;9.95;2.22;;;;;;;;;;5063431;28;20033;-82
2024/01/16 03:22:36;;;;;;;7.72;2.25;;;;;;;;;;5065447;28;20085;-81
2024/01/16 03:25:03;;;;;;;9.43;3.40;;;;;;;;;;5048799;28;20028;-81
2024/01/16 03:27:31;;;;;;;10.48;3.70;;;;;;;;;;5047841;28;20722;-81
2024/01/16 03:29:59;;;;;;;11.18;3.50;;;;;;;;;;5062084;28;20071;-81
2024/01/16 03:32:26;;;;;;;10.90;3.05;;;;;;;;;;5044925;28;20108;-82
2024/01/16 03:34:53;;;;;;;12.07;3.45;;;;;;;;;;5059318;28;20043;-82
2024/01/16 03:37:22;;;;;;;11.15;2.70;;;;;;;;;;5044661;28;20032;-81
2024/01/16 03:39:50;;;;;;;12.27;2.70;;;;;;;;;;5048527;28;20043;-81
2024/01/16 03:42:16;;;;;;;10.25;2.78;;;;;;;;;;5045806;28;20021;-81
2024/01/16 03:44:43;;;;;;;11.55;2.95;;;;;;;;;;5033769;28;20028;-81
2024/01/16 03:47:11;;;;;;;10.95;3.28;;;;;;;;;;5047255;28;20032;-81
2024/01/16 03:49:38;;;;;;;9.57;2.58;;;;;;;;;;5067049;28;20759;-82
2024/01/16 03:52:06;;;;;;;9.65;2.88;;;;;;;;;;5027905;28;20043;-81
2024/01/16 03:54:34;;;;;;;9.32;2.58;;;;;;;;;;5049298;28;20177;-81
2024/01/16 03:57:03;;;;;;;9.32;2.70;;;;;;;;;;5048179;28;20080;-82
2024/01/16 03:59:30;;;;;;;9.40;2.70;;;;;;;;;;5062211;28;20525;-82
2024/01/16 04:01:59;;;;;;;10.85;3.40;;;;;;;;;;5045953;28;20040;-82
2024/01/16 04:04:28;;;;;;;11.18;3.72;;;;;;;;;;5045232;28;20078;-81
2024/01/16 04:06:54;;;;;;;12.27;3.97;;;;;;;;;;5048962;28;20028;-82
2024/01/16 04:09:21;;;;;;;11.13;2.70;;;;;;;;;;5044967;28;20032;-81
2024/01/16 04:11:54;;;;;;;9.98;2.67;;;;;;;;;;5063804;28;20056;-81
2024/01/16 04:14:23;;;;;;;8.95;2.35;;;;;;;;;;5064074;28;20046;-81
2024/01/16 04:16:50;;;;;;;9.00;2.70;;;;;;;;;;5050832;28;20109;-81
2024/01/16 04:19:19;;;;;;;10.52;2.60;;;;;;;;;;5041201;28;20494;-82
2024/01/16 04:21:48;;;;;;;8.90;2.25;;;;;;;;;;5060647;28;20031;-82
2024/01/16 04:24:15;;;;;;;10.48;2.75;;;;;;;;;;5051340;28;20032;-81
2024/01/16 04:26:44;;;;;;;9.98;2.00;;;;;;;;;;5049583;28;20024;-81
2024/01/16 04:29:12;;;;;;;8.40;2.10;;;;;;;;;;5043823;28;20127;-81
2024/01/16 04:31:41;;;;;;;9.02;2.58;;;;;;;;;;5064058;28;20070;-82
2024/01/16 04:34:10;;;;;;;9.25;2.45;;;;;;;;;;5045988;28;20032;-81
2024/01/16 04:36:39;;;;;;;9.60;2.58;;;;;;;;;;5046607;28;20036;-82
2024/01/16 04:39:11;;;;;;;10.65;2.85;;;;;;;;;;5060593;28;20803;-80
2024/01/16 04:41:39;;;;;;;13.05;3.13;;;;;;;;;;5063584;28;20078;-81
2024/01/16 04:44:07;;;;;;;10.02;2.83;;;;;;;;;;5060203;28;20043;-80
2024/01/16 04:46:34;;;;;;;9.75;2.63;;;;;;;;;;5065168;28;20092;-82
2024/01/16 04:49:02;;;;;;;10.00;2.75;;;;;;;;;;5049421;28;20034;-82
2024/01/16 04:51:30;;;;;;;10.60;2.92;;;;;;;;;;5063319;28;20035;-81
2024/01/16 04:53:59;;;;;;;8.90;2.58;;;;;;;;;;5061731;28;20043;-81
2024/01/16 04:56:25;;;;;;;11.23;2.58;;;;;;;;;;5041996;28;20036;-81
2024/01/16 04:58:53;;;;;;;8.10;2.20;;;;;;;;;;5048517;28;20040;-82
2024/01/16 05:01:22;;;;;;;9.38;3.03;;;;;;;;;;5062836;28;20037;-81
2024/01/16 05:03:49;;;;;;;9.35;3.25;;;;;;;;;;5069756;28;20023;-82
2024/01/16 05:06:18;;;;;;;9.52;3.05;;;;;;;;;;5047834;28;20016;-81
2024/01/16 05:08:47;;;;;;;9.95;3.88;;;;;;;;;;5051457;28;20572;-81
2024/01/16 05:11:16;;;;;;;10.48;3.53;;;;;;;;;;5044584;28;20032;-81
2024/01/16 05:13:48;;;;;;;13.25;3.40;;;;;;;;;;5050747;28;20040;-81
2024/01/16 05:16:14;;;;;;;11.90;3.08;;;;;;;;;;5063319;28;20047;-81
2024/01/16 05:18:44;;;;;;;12.43;3.50;;;;;;;;;;5068814;28;20039;-80
2024/01/16 05:21:12;;;;;;;10.93;2.92;;;;;;;;;;5062902;28;20038;-81
2024/01/16 05:23:39;;;;;;;10.40;3.05;;;;;;;;;;5066297;28;20059;-80
2024/01/16 05:26:07;;;;;;;11.05;3.13;;;;;;;;;;5064161;28;20094;-80
2024/01/16 05:28:36;;;;;;;14.40;4.47;;;;;;;;;;5066476;28;20065;-81
2024/01/16 05:31:03;;;;;;;12.35;4.70;;;;;;;;;;5068451;28;20102;-81
2024/01/16 05:33:32;;;;;;;11.38;4.40;;;;;;;;;;5067660;28;20067;-83
2024/01/16 05:36:02;;;;;;;11.02;3.45;;;;;;;;;;5068306;28;20593;-80
2024/01/16 05:38:39;;;;;;;10.80;3.00;;;;;;;;;;5063892;28;20159;-80
2024/01/16 05:41:11;;;;;;;9.38;3.33;;;;;;;;;;5067439;28;20656;-82
2024/01/16 05:43:37;;;;;;;10.48;3.50;;;;;;;;;;5064881;28;20051;-83
2024/01/16 05:46:06;;;;;;;11.55;3.28;;;;;;;;;;5062462;28;20024;-82
2024/01/16 05:48:38;;;;;;;14.18;3.60;;;;;;;;;;5065779;28;20060;-82
2024/01/16 05:51:06;;;;;;;12.55;3.40;;;;;;;;;;5066589;28;20115;-82
2024/01/16 05:53:34;;;;;;;15.27;3.47;;;;;;;;;;5067148;28;20028;-83
2024/01/16 05:56:01;;;;;;;9.20;2.70;;;;;;;;;;5051038;28;20024;-82
2024/01/16 05:58:35;;;;;;;11.90;2.50;;;;;;;;;;5048263;28;20432;-82
2024/01/16 06:01:05;;;;;;;10.18;2.50;;;;;;;;;;5064799;28;20088;-82
2024/01/16 06:03:33;;;;;;;10.55;2.50;;;;;;;;;;5052266;28;20487;-82
2024/01/16 06:06:01;;;;;;;8.15;2.13;;;;;;;;;;5067459;28;20039;-83
2024/01/16 06:08:30;;;;;;;10.10;2.55;;;;;;;;;;5049721;28;20034;-84
2024/01/16 06:11:01;;;;;;;9.50;2.28;;;;;;;;;;5067023;28;20201;-83
2024/01/16 06:13:31;;;;;;;9.07;2.08;;;;;;;;;;5050190;28;20542;-82
2024/01/16 06:15:59;;;;;;;9.35;2.47;;;;;;;;;;5064676;28;20024;-84
2024/01/16 06:18:25;;;;;;;10.27;2.70;;;;;;;;;;5048483;28;20316;-83
2024/01/16 06:20:53;;;;;;;9.82;2.60;;;;;;;;;;5050104;28;20085;-83
2024/01/16 06:23:22;;;;;;;11.15;2.92;;;;;;;;;;5066521;28;20032;-82
2024/01/16 06:25:51;;;;;;;9.32;2.03;;;;;;;;;;5065112;28;20046;-82
2024/01/16 06:28:19;;;;;;;9.30;2.22;;;;;;;;;;5046017;28;20116;-81
2024/01/16 06:30:48;;;;;;;10.50;2.25;;;;;;;;;;5049719;28;20238;-83
2024/01/16 06:33:16;;;;;;;11.15;2.30;;;;;;;;;;5063023;28;20777;-81
2024/01/16 06:36:07;;;;;;;12.15;2.17;;;;;;;;;;5050356;28;20008;-83
2024/01/16 06:38:33;;;;;;;10.15;2.40;;;;;;;;;;5067552;28;20054;-83
2024/01/16 06:41:20;;;;;;;11.93;2.70;;;;;;;;;;5065311;28;20594;-82
2024/01/16 06:43:48;;;;;;;14.02;3.05;;;;;;;;;;5044948;28;20029;-83
2024/01/16 06:46:15;;;;;;;12.50;3.03;;;;;;;;;;5046044;28;20024;-83
2024/01/16 06:48:44;;;;;;;12.15;2.70;;;;;;;;;;5047037;28;20081;-83
2024/01/16 06:51:13;;;;;;;10.68;2.80;;;;;;;;;;5065673;28;20519;-84
2024/01/16 06:53:46;;;;;;;12.48;3.03;;;;;;;;;;5066386;28;20032;-81
2024/01/16 06:56:15;;;;;;;11.95;3.10;;;;;;;;;;5066453;28;20464;-82
2024/01/16 06:58:44;;;;;;;10.23;2.67;;;;;;;;;;5067472;28;20596;-83
2024/01/16 07:01:12;;;;;;;12.05;2.80;;;;;;;;;;5065478;28;20028;-83
2024/01/16 07:03:39;;;;;;;11.60;3.05;;;;;;;;;;5039345;28;20043;-82
2024/01/16 07:06:08;;;;;;;12.15;3.58;;;;;;;;;;5064599;28;20464;-81
2024/01/16 07:08:37;;;;;;;14.90;4.30;;;;;;;;;;5065684;28;20024;-82
2024/01/16 07:11:08;;;;;;;13.82;3.38;;;;;;;;;;5048597;28;20046;-82
2024/01/16 07:13:37;;;;;;;11.13;2.88;;;;;;;;;;5063151;28;20036;-81
2024/01/16 07:16:06;;;;;;;10.38;2.60;;;;;;;;;;5061722;28;20116;-81
2024/01/16 07:18:35;;;;;;;11.02;3.08;;;;;;;;;;5050445;28;20098;-82
2024/01/16 07:21:04;;;;;;;12.93;2.95;;;;;;;;;;5062802;28;20040;-82
2024/01/16 07:23:33;;;;;;;13.68;3.10;;;;;;;;;;5046620;28;20032;-81
2024/01/16 07:26:03;;;;;;;12.07;3.13;;;;;;;;;;5050217;28;20693;-82
2024/01/16 07:28:32;;;;;;;14.23;3.30;;;;;;;;;;5061519;28;20572;-82
2024/01/16 07:31:00;;;;;;;14.73;3.40;;;;;;;;;;5063920;28;20028;-81
2024/01/16 07:33:29;;;;;;;13.52;3.60;;;;;;;;;;5065952;28;20062;-81
2024/01/16 07:35:56;;;;;;;13.95;3.17;;;;;;;;;;5062217;28;20116;-82
2024/01/16 07:38:25;;;;;;;16.60;3.72;;;;;;;;;;5058139;28;20052;-81
2024/01/16 07:40:57;;;;;;;15.43;3.65;;;;;;;;;;5048913;28;20055;-80
2024/01/16 07:43:25;;;;;;;13.88;3.53;;;;;;;;;;5041529;28;20045;-81
2024/01/16 07:46:13;;;;;;;15.15;4.00;;;;;;;;;;5059139;28;20108;-81
2024/01/16 07:48:41;;;;;;;13.23;3.70;;;;;;;;;;5047414;28;20073;-81
2024/01/16 07:51:08;;;;;;;15.68;5.00;;;;;;;;;;5055983;28;20032;-81
2024/01/16 07:53:36;;;;;;;16.52;4.63;;;;;;;;;;5058035;28;20038;-82
2024/01/16 07:56:05;;;;;;;14.52;4.30;;;;;;;;;;5047502;28;20052;-80
2024/01/16 07:58:34;;;;;;;14.65;5.53;;;;;;;;;;5061623;28;20074;-81
2024/01/16 08:01:03;;;;;;;13.95;3.70;;;;;;;;;;5048094;28;20101;-81
2024/01/16 08:03:31;;;;;;;13.75;3.72;;;;;;;;;;5064157;28;20620;-81
2024/01/16 08:06:00;;;;;;;12.32;4.13;;;;;;;;;;5061912;28;20070;-80
2024/01/16 08:08:29;;;;;;;17.00;4.10;;;;;;;;;;5045672;28;20036;-80
2024/01/16 08:10:57;;;;;;;12.18;3.65;;;;;;;;;;5066158;28;20036;-80
2024/01/16 08:13:24;;;;;;;13.15;4.00;;;;;;;;;;5045409;28;20731;-80
2024/01/16 08:15:53;;;;;;;14.93;4.57;;;;;;;;;;5064420;28;20032;-81
2024/01/16 08:18:22;;;;;;;12.88;4.00;;;;;;;;;;5049081;28;20032;-79
2024/01/16 08:20:50;;;;;;;12.02;3.00;;;;;;;;;;5065858;28;20468;-80
2024/01/16 08:23:21;;;;;;;9.95;2.88;;;;;;;;;;5043600;28;20024;-79
2024/01/16 08:25:51;;;;;;;8.75;2.53;;;;;;;;;;5048450;28;20046;-79
2024/01/16 08:28:24;;;;;;;9.43;2.55;;;;;;;;;;5062234;28;20017;-79
2024/01/16 08:30:53;;;;;;;7.90;2.60;;;;;;;;;;5065195;28;20028;-79
2024/01/16 08:33:22;;;;;;;10.70;2.83;;;;;;;;;;5061390;28;20092;-80
2024/01/16 08:35:50;;;;;;;9.90;2.88;;;;;;;;;;5034769;28;20052;-80
2024/01/16 08:38:19;;;;;;;11.10;3.53;;;;;;;;;;5044249;28;20043;-79
2024/01/16 08:40:47;;;;;;;12.38;3.38;;;;;;;;;;5049097;28;20687;-79
2024/01/16 08:43:15;;;;;;;10.20;2.95;;;;;;;;;;5044748;28;20037;-81
2024/01/16 08:46:03;;;;;;;12.60;3.08;;;;;;;;;;5047369;28;20289;-81
2024/01/16 08:48:31;;;;;;;10.48;3.53;;;;;;;;;;5045596;28;20033;-81
2024/01/16 08:50:59;;;;;;;11.43;3.50;;;;;;;;;;5046289;28;20025;-81
2024/01/16 08:53:26;;;;;;;18.23;8.40;;;;;;;;;;5046544;28;20032;-82
2024/01/16 08:55:55;;;;;;;21.48;11.70;;;;;;;;;;5047923;28;20038;-83
2024/01/16 08:58:23;;;;;;;24.45;11.88;;;;;;;;;;5047805;28;20111;-84
2024/01/16 09:00:52;;;;;;;19.70;8.57;;;;;;;;;;5047094;28;20604;-81
2024/01/16 09:03:21;;;;;;;15.00;5.18;;;;;;;;;;5046650;28;20501;-81
2024/01/16 09:05:50;;;;;;;16.67;4.65;;;;;;;;;;5049393;28;20028;-81
2024/01/16 09:08:37;;;;;;;13.27;4.82;;;;;;;;;;5046767;28;20028;-83
2024/01/16 09:11:06;;;;;;;17.33;4.47;;;;;;;;;;5051339;28;20024;-82
2024/01/16 09:13:34;;;;;;;14.18;4.93;;;;;;;;;;5050056;28;20389;-83
2024/01/16 09:16:01;;;;;;;16.63;6.45;;;;;;;;;;5050173;28;20035;-82
2024/01/16 09:18:30;;;;;;;17.77;5.45;;;;;;;;;;5047245;28;20188;-82
2024/01/16 09:20:57;;;;;;;13.02;4.55;;;;;;;;;;5049289;28;20048;-82
2024/01/16 09:23:25;;;;;;;14.13;4.53;;;;;;;;;;5049587;28;20477;-82
2024/01/16 09:25:51;;;;;;;15.73;4.60;;;;;;;;;;5035691;28;20047;-82
2024/01/16 09:28:19;;;;;;;15.98;4.68;;;;;;;;;;5056499;28;20499;-82
2024/01/16 09:30:47;;;;;;;13.45;4.30;;;;;;;;;;5054881;28;20024;-83
2024/01/16 09:33:16;;;;;;;16.42;4.60;;;;;;;;;;5051016;28;20028;-82
2024/01/16 09:36:07;;;;;;;14.32;4.15;;;;;;;;;;5053893;28;20140;-83
2024/01/16 09:38:35;;;;;;;10.85;3.40;;;;;;;;;;5063274;28;20082;-82
2024/01/16 09:41:04;;;;;;;13.95;5.35;;;;;;;;;;5054398;28;20052;-82
2024/01/16 09:43:33;;;;;;;14.30;5.80;;;;;;;;;;5069805;28;20116;-81
2024/01/16 09:46:06;;;;;;;16.25;8.98;;;;;;;;;;5053327;28;20062;-82
2024/01/16 09:48:35;;;;;;;16.00;7.47;;;;;;;;;;5052915;28;20016;-82
2024/01/16 09:51:03;;;;;;;12.38;3.95;;;;;;;;;;5054819;28;20044;-82
2024/01/16 09:53:32;;;;;;;13.93;3.47;;;;;;;;;;5054249;28;20525;-83
2024/01/16 09:56:12;;;;;;;12.30;3.28;;;;;;;;;;5056700;28;20061;-82
2024/01/16 09:58:40;;;;;;;13.57;3.20;;;;;;;;;;5054937;28;20790;-83
2024/01/16 10:01:08;;;;;;;13.43;3.22;;;;;;;;;;5041405;28;20078;-83
2024/01/16 10:03:41;;;;;;;16.42;2.90;;;;;;;;;;5053463;28;20040;-83
2024/01/16 10:06:10;;;;;;;12.85;3.47;;;;;;;;;;5053522;28;20020;-82
2024/01/16 10:08:38;;;;;;;13.68;5.15;;;;;;;;;;5040169;28;20062;-81
2024/01/16 10:11:08;;;;;;;14.60;4.93;;;;;;;;;;5075019;28;20557;-84
2024/01/16 10:13:36;;;;;;;13.50;5.07;;;;;;;;;;5051468;28;20113;-83
2024/01/16 10:16:03;;;;;;;13.00;4.50;;;;;;;;;;5071454;28;20032;-83
2024/01/16 10:18:32;;;;;;;13.93;3.85;;;;;;;;;;5069253;28;20127;-84
2024/01/16 10:21:01;;;;;;;13.23;3.80;;;;;;;;;;5062060;28;20568;-81
2024/01/16 10:23:32;;;;;;;11.93;2.63;;;;;;;;;;5039324;28;20035;-83
2024/01/16 10:26:20;;;;;;;14.48;3.60;;;;;;;;;;5072619;28;20024;-76
2024/01/16 10:28:46;;;;;;;;;;;;;;;;;;5071970;28;20590;-79
2024/01/16 10:31:16;;;;;;;15.80;3.80;;;;;;;;;;5069106;28;19913;-76
2024/01/16 10:33:44;;;;;;;13.05;3.53;;;;;;;;;;5071200;28;20359;-77
2024/01/16 10:36:19;;;;;;;13.88;3.17;;;;;;;;;;5055585;28;20080;-76
2024/01/16 10:38:57;;;;;;;14.80;3.55;;;;;;;;;;5050518;28;20044;-78
2024/01/16 10:41:29;;;;;;;15.55;3.97;;;;;;;;;;5047224;28;20516;-75
2024/01/16 10:44:09;;;;;;;12.18;4.45;;;;;;;;;;5049877;28;20052;-77
2024/01/16 10:46:39;;;;;;;15.55;4.05;;;;;;;;;;5051162;28;20041;-76
2024/01/16 10:49:08;;;;;;;12.02;3.38;;;;;;;;;;5045124;28;20086;-76
2024/01/16 10:51:39;;;;;;;11.40;2.67;;;;;;;;;;5040241;28;20143;-77
2024/01/16 10:54:08;;;;;;;13.27;3.03;;;;;;;;;;5042197;28;20095;-76
2024/01/16 10:56:38;;;;;;;9.73;2.60;;;;;;;;;;5046614;28;20535;-76
2024/01/16 10:59:21;;;;;;;12.10;3.35;;;;;;;;;;5048781;28;20031;-77
2024/01/16 11:01:51;;;;;;;13.70;3.80;;;;;;;;;;5050445;28;20946;-77
2024/01/16 11:04:22;;;;;;;12.88;4.05;;;;;;;;;;5042107;28;20040;-76
2024/01/16 11:06:56;;;;;;;15.40;3.60;;;;;;;;;;5044538;28;20028;-77
2024/01/16 11:09:24;;;;;;;11.77;3.20;;;;;;;;;;5040057;28;20024;-77
2024/01/16 11:11:57;;;;;;;15.27;3.88;;;;;;;;;;5044802;28;20678;-82
2024/01/16 11:14:44;;;;;;;12.60;3.72;;;;;;;;;;5045945;28;20024;-84
2024/01/16 11:17:17;;;;;;;12.80;4.20;;;;;;;;;;5056312;28;20513;-83
2024/01/16 11:19:47;;;;;;;14.50;3.92;;;;;;;;;;5049629;28;20035;-82
2024/01/16 11:22:16;;;;;;;14.50;3.45;;;;;;;;;;5037542;28;20040;-83
2024/01/16 11:24:44;;;;;;;13.40;5.03;;;;;;;;;;5043698;28;20025;-85
2024/01/16 11:27:26;;;;;;;18.08;6.40;;;;;;;;;;5045146;28;20043;-84
2024/01/16 11:29:53;;;;;;;16.55;4.90;;;;;;;;;;5048806;28;20072;-84
2024/01/16 11:32:35;;;;;;;11.60;3.70;;;;;;;;;;5046049;28;20702;-85
2024/01/16 11:35:13;;;;;;;14.48;6.35;;;;;;;;;;5049436;28;20028;-84
2024/01/16 11:37:43;;;;;;;18.47;10.83;;;;;;;;;;5047107;28;20485;-84
2024/01/16 11:40:33;;;;;;;14.65;6.88;;;;;;;;;;5062925;28;20032;-84
2024/01/16 11:43:00;;;;;;;11.38;3.83;;;;;;;;;;5044966;28;20071;-84
2024/01/16 11:45:53;;;;;;;10.68;3.60;;;;;;;;;;5068586;28;20021;-85
2024/01/16 11:48:21;;;;;;;11.73;3.92;;;;;;;;;;4950808;28;20085;-84
2024/01/16 11:50:50;;;;;;;11.23;4.20;;;;;;;;;;4974499;28;20039;-85
2024/01/16 11:53:44;;;;;;;13.40;4.88;;;;;;;;;;4968353;28;20053;-85
2024/01/16 11:56:29;;;;;;;11.77;3.70;;;;;;;;;;4970965;28;20049;-85
2024/01/16 11:59:14;;;;;;;10.45;3.70;;;;;;;;;;4972688;28;20564;-85
2024/01/16 12:01:52;;;;;;;11.45;3.28;;;;;;;;;;4971494;28;20034;-84
2024/01/16 12:04:21;;;;;;;9.35;2.85;;;;;;;;;;4964492;28;20153;-83
2024/01/16 12:07:01;;;;;;;9.55;2.88;;;;;;;;;;4972051;28;20041;-87
2024/01/16 12:09:29;;;;;;;7.55;2.10;;;;;;;;;;4969564;28;20038;-85
2024/01/16 12:12:02;;;;;;;9.27;2.00;;;;;;;;;;4972070;28;20069;-85
2024/01/16 12:14:31;;;;;;;4.93;1.27;;;;;;;;;;4971407;28;20121;-86
2024/01/16 12:17:12;;;;;;;7.35;1.70;;;;;;;;;;4973367;28;20658;-87
2024/01/16 12:19:42;;;;;;;9.23;2.08;;;;;;;;;;4971873;28;20692;-85
2024/01/16 12:22:11;;;;;;;6.65;1.60;;;;;;;;;;4972271;28;20046;-86
2024/01/16 12:24:40;;;;;;;6.03;1.70;;;;;;;;;;4997297;28;20591;-86
2024/01/16 12:27:09;;;;;;;5.80;1.20;;;;;;;;;;5036657;28;20071;-86
2024/01/16 12:29:41;;;;;;;5.75;1.42;;;;;;;;;;5076739;28;20116;-86
2024/01/16 12:32:18;;;;;;;7.80;1.60;;;;;;;;;;5073596;28;20032;-86
2024/01/16 12:34:48;;;;;;;7.40;2.80;;;;;;;;;;5074220;28;20027;-82
2024/01/16 12:37:15;;;;;;;10.57;4.13;;;;;;;;;;5057018;28;20059;-82
2024/01/16 12:39:44;;;;;;;7.25;2.75;;;;;;;;;;5074909;28;20474;-83
2024/01/16 12:42:12;;;;;;;7.28;2.00;;;;;;;;;;5058343;28;20474;-83
2024/01/16 12:44:41;;;;;;;3.28;1.08;;;;;;;;;;5076346;28;20024;-82
2024/01/16 12:47:31;;;;;;;2.83;0.80;;;;;;;;;;5056819;28;20043;-83
2024/01/16 12:49:59;;;;;;;2.60;0.85;;;;;;;;;;5072670;28;20036;-83
2024/01/16 12:52:29;;;;;;;4.25;1.13;;;;;;;;;;5055477;28;20755;-84
2024/01/16 12:55:04;;;;;;;2.72;0.90;;;;;;;;;;5068761;28;20105;-84
2024/01/16 12:57:42;;;;;;;3.80;1.20;;;;;;;;;;5073216;28;20036;-84
2024/01/16 13:00:26;;;;;;;3.60;1.02;;;;;;;;;;5054417;28;20052;-83
2024/01/16 13:02:58;;;;;;;3.10;0.88;;;;;;;;;;5069446;28;20891;-84
2024/01/16 13:05:30;;;;;;;4.28;0.90;;;;;;;;;;5070364;28;20085;-83
2024/01/16 13:08:05;;;;;;;3.72;0.90;;;;;;;;;;5068361;28;20063;-83
2024/01/16 13:10:32;;;;;;;;;;;;;;;;;;5061357;28;20036;-83
2024/01/16 13:13:35;;;;;;;2.83;0.88;;;;;;;;;;5056231;28;19934;-84
2024/01/16 13:16:06;;;;;;;3.40;0.80;;;;;;;;;;5053080;28;20056;-84
2024/01/16 13:18:34;;;;;;;3.50;0.85;;;;;;;;;;5052094;28;20029;-83
2024/01/16 13:21:02;;;;;;;3.53;1.00;;;;;;;;;;5051123;28;20032;-84
2024/01/16 13:23:30;;;;;;;3.95;0.90;;;;;;;;;;5042837;28;20048;-84
2024/01/16 13:26:04;;;;;;;5.53;1.60;;;;;;;;;;5067789;28;20032;-83
2024/01/16 13:28:43;;;;;;;5.88;2.05;;;;;;;;;;5053484;28;20036;-84
2024/01/16 13:31:14;;;;;;;7.20;2.00;;;;;;;;;;5060137;28;20032;-83
2024/01/16 13:33:43;;;;;;;6.28;1.50;;;;;;;;;;5052990;28;20035;-83
2024/01/16 13:36:12;;;;;;;5.93;1.60;;;;;;;;;;5053467;28;20028;-84
2024/01/16 13:38:39;;;;;;;3.65;1.08;;;;;;;;;;5063866;28;20044;-84
2024/01/16 13:41:07;;;;;;;3.78;1.00;;;;;;;;;;5051933;28;20020;-83
2024/01/16 13:43:37;;;;;;;6.18;1.10;;;;;;;;;;5068942;28;20520;-83
2024/01/16 13:46:17;;;;;;;4.05;1.10;;;;;;;;;;5062326;28;20082;-83
2024/01/16 13:48:45;;;;;;;3.85;0.80;;;;;;;;;;5047986;28;20036;-83
2024/01/16 13:51:15;;;;;;;5.93;1.10;;;;;;;;;;5061545;28;20051;-83
2024/01/16 13:53:47;;;;;;;3.45;0.88;;;;;;;;;;5067260;28;20341;-85
2024/01/16 13:56:14;;;;;;;5.78;1.40;;;;;;;;;;5062900;28;20021;-85
2024/01/16 13:58:42;;;;;;;4.13;0.90;;;;;;;;;;5062023;28;20591;-85
2024/01/16 14:01:11;;;;;;;5.82;1.02;;;;;;;;;;5063733;28;20075;-85
2024/01/16 14:03:40;;;;;;;4.90;1.50;;;;;;;;;;5049534;28;20066;-85
2024/01/16 14:06:31;;;;;;;5.03;1.52;;;;;;;;;;5064257;28;20024;-86
2024/01/16 14:08:59;;;;;;;4.90;1.50;;;;;;;;;;5046325;28;20031;-85
2024/01/16 14:11:28;;;;;;;5.22;1.30;;;;;;;;;;5051703;28;20650;-84
2024/01/16 14:13:57;;;;;;;4.47;1.30;;;;;;;;;;5047724;28;20382;-85
2024/01/16 14:16:26;;;;;;;4.47;1.30;;;;;;;;;;5066572;28;20046;-85
2024/01/16 14:18:52;;;;;;;4.22;0.90;;;;;;;;;;5065560;28;20025;-85
2024/01/16 14:21:19;;;;;;;7.03;1.38;;;;;;;;;;5050479;28;20150;-86
2024/01/16 14:23:47;;;;;;;5.70;1.17;;;;;;;;;;5049088;28;20036;-86
2024/01/16 14:26:17;;;;;;;4.68;1.10;;;;;;;;;;5062046;28;20020;-86
2024/01/16 14:28:45;;;;;;;4.05;1.13;;;;;;;;;;5065747;28;20012;-86
2024/01/16 14:31:13;;;;;;;5.22;1.10;;;;;;;;;;5046973;28;20049;-87
2024/01/16 14:33:41;;;;;;;4.43;1.10;;;;;;;;;;5051618;28;20058;-86
2024/01/16 14:36:08;;;;;;;3.58;1.08;;;;;;;;;;5072660;28;20531;-85
2024/01/16 14:38:36;;;;;;;4.60;1.17;;;;;;;;;;5072771;28;20101;-84
2024/01/16 14:41:05;;;;;;;3.67;0.88;;;;;;;;;;5055366;28;20135;-84
2024/01/16 14:43:35;;;;;;;3.70;1.00;;;;;;;;;;5068079;28;20024;-86
2024/01/16 14:46:24;;;;;;;3.70;1.05;;;;;;;;;;5072832;28;20385;-84
2024/01/16 14:49:02;;;;;;;5.68;1.17;;;;;;;;;;5067100;28;20067;-85
2024/01/16 14:51:30;;;;;;;4.75;1.10;;;;;;;;;;5049072;28;20062;-85
2024/01/16 14:54:01;;;;;;;4.55;1.38;;;;;;;;;;5069254;28;20443;-84